sensor_id;sensor_type;location;lat;lon;timestamp;P1;durP1;ratioP1;P2;durP2;ratioP2
60432;SDS011;46286;48.098;11.590;2023-02-26T00:00:54;3.08;;;1.90;;
60432;SDS011;46286;48.098;11.590;2023-02-26T00:03:34;3.03;;;2.05;;
60432;SDS011;46286;48.098;11.590;2023-02-26T00:05:59;4.38;;;2.10;;
60432;SDS011;46286;48.098;11.590;2023-02-26T00:08:25;6.75;;;2.40;;
60432;SDS011;46286;48.098;11.590;2023-02-26T00:10:51;2.72;;;1.77;;
60432;SDS011;46286;48.098;11.590;2023-02-26T00:13:19;5.25;;;2.85;;
60432;SDS011;46286;48.098;11.590;2023-02-26T00:15:46;4.10;;;2.30;;
60432;SDS011;46286;48.098;11.590;2023-02-26T00:18:13;3.85;;;2.35;;
60432;SDS011;46286;48.098;11.590;2023-02-26T00:20:40;4.47;;;2.55;;
60432;SDS011;46286;48.098;11.590;2023-02-26T00:23:11;6.43;;;2.55;;
60432;SDS011;46286;48.098;11.590;2023-02-26T00:25:40;4.05;;;2.53;;
60432;SDS011;46286;48.098;11.590;2023-02-26T00:28:06;4.22;;;2.65;;
60432;SDS011;46286;48.098;11.590;2023-02-26T00:30:33;3.38;;;2.17;;
60432;SDS011;46286;48.098;11.590;2023-02-26T00:32:59;3.63;;;2.45;;
60432;SDS011;46286;48.098;11.590;2023-02-26T00:35:25;4.65;;;2.22;;
60432;SDS011;46286;48.098;11.590;2023-02-26T00:38:01;4.00;;;2.47;;
60432;SDS011;46286;48.098;11.590;2023-02-26T00:40:34;4.90;;;2.58;;
60432;SDS011;46286;48.098;11.590;2023-02-26T00:43:05;5.47;;;2.70;;
60432;SDS011;46286;48.098;11.590;2023-02-26T00:45:32;4.35;;;2.65;;
60432;SDS011;46286;48.098;11.590;2023-02-26T00:50:25;6.18;;;2.63;;
60432;SDS011;46286;48.098;11.590;2023-02-26T00:55:46;4.95;;;2.70;;
60432;SDS011;46286;48.098;11.590;2023-02-26T00:58:12;5.55;;;2.58;;
60432;SDS011;46286;48.098;11.590;2023-02-26T01:00:37;6.65;;;2.42;;
60432;SDS011;46286;48.098;11.590;2023-02-26T01:03:03;4.53;;;2.83;;
60432;SDS011;46286;48.098;11.590;2023-02-26T01:05:29;6.38;;;2.90;;
60432;SDS011;46286;48.098;11.590;2023-02-26T01:08:29;4.65;;;2.67;;
60432;SDS011;46286;48.098;11.590;2023-02-26T01:10:58;3.70;;;2.35;;
60432;SDS011;46286;48.098;11.590;2023-02-26T01:13:23;4.45;;;2.80;;
60432;SDS011;46286;48.098;11.590;2023-02-26T01:15:52;4.00;;;2.35;;
60432;SDS011;46286;48.098;11.590;2023-02-26T01:18:25;4.80;;;2.75;;
60432;SDS011;46286;48.098;11.590;2023-02-26T01:20:59;4.88;;;2.72;;
60432;SDS011;46286;48.098;11.590;2023-02-26T01:23:31;3.70;;;2.53;;
60432;SDS011;46286;48.098;11.590;2023-02-26T01:26:09;4.15;;;2.30;;
60432;SDS011;46286;48.098;11.590;2023-02-26T01:28:39;4.03;;;2.40;;
60432;SDS011;46286;48.098;11.590;2023-02-26T01:31:05;5.70;;;2.90;;
60432;SDS011;46286;48.098;11.590;2023-02-26T01:33:52;4.75;;;2.17;;
60432;SDS011;46286;48.098;11.590;2023-02-26T01:36:23;3.95;;;2.30;;
60432;SDS011;46286;48.098;11.590;2023-02-26T01:39:01;5.03;;;2.40;;
60432;SDS011;46286;48.098;11.590;2023-02-26T01:41:38;4.57;;;2.30;;
60432;SDS011;46286;48.098;11.590;2023-02-26T01:49:34;3.17;;;2.30;;
60432;SDS011;46286;48.098;11.590;2023-02-26T01:52:02;4.32;;;2.30;;
60432;SDS011;46286;48.098;11.590;2023-02-26T01:54:31;3.72;;;2.38;;
60432;SDS011;46286;48.098;11.590;2023-02-26T01:57:09;3.83;;;2.55;;
60432;SDS011;46286;48.098;11.590;2023-02-26T01:59:43;4.15;;;2.25;;
60432;SDS011;46286;48.098;11.590;2023-02-26T02:02:10;5.20;;;2.50;;
60432;SDS011;46286;48.098;11.590;2023-02-26T02:04:39;4.53;;;2.78;;
60432;SDS011;46286;48.098;11.590;2023-02-26T02:07:06;6.10;;;2.95;;
60432;SDS011;46286;48.098;11.590;2023-02-26T02:09:32;4.45;;;2.42;;
60432;SDS011;46286;48.098;11.590;2023-02-26T02:14:52;3.75;;;2.28;;
60432;SDS011;46286;48.098;11.590;2023-02-26T02:20:19;4.75;;;2.58;;
60432;SDS011;46286;48.098;11.590;2023-02-26T02:22:55;6.82;;;2.47;;
60432;SDS011;46286;48.098;11.590;2023-02-26T02:25:34;5.05;;;2.63;;
60432;SDS011;46286;48.098;11.590;2023-02-26T02:31:24;4.65;;;2.40;;
60432;SDS011;46286;48.098;11.590;2023-02-26T02:39:13;4.13;;;2.05;;
60432;SDS011;46286;48.098;11.590;2023-02-26T02:41:45;5.45;;;2.10;;
60432;SDS011;46286;48.098;11.590;2023-02-26T02:44:16;3.90;;;2.00;;
60432;SDS011;46286;48.098;11.590;2023-02-26T02:46:46;3.42;;;2.05;;
60432;SDS011;46286;48.098;11.590;2023-02-26T02:49:17;7.63;;;1.95;;
60432;SDS011;46286;48.098;11.590;2023-02-26T02:51:49;4.20;;;2.22;;
60432;SDS011;46286;48.098;11.590;2023-02-26T02:54:37;3.72;;;2.10;;
60432;SDS011;46286;48.098;11.590;2023-02-26T02:57:14;3.50;;;1.88;;
60432;SDS011;46286;48.098;11.590;2023-02-26T02:59:46;8.68;;;2.15;;
60432;SDS011;46286;48.098;11.590;2023-02-26T03:02:21;4.30;;;2.30;;
60432;SDS011;46286;48.098;11.590;2023-02-26T03:04:51;4.75;;;1.92;;
60432;SDS011;46286;48.098;11.590;2023-02-26T03:07:16;4.25;;;2.13;;
60432;SDS011;46286;48.098;11.590;2023-02-26T03:09:42;4.50;;;2.17;;
60432;SDS011;46286;48.098;11.590;2023-02-26T03:12:08;5.60;;;1.80;;
60432;SDS011;46286;48.098;11.590;2023-02-26T03:14:33;4.25;;;1.88;;
60432;SDS011;46286;48.098;11.590;2023-02-26T03:17:03;3.47;;;2.05;;
60432;SDS011;46286;48.098;11.590;2023-02-26T03:25:17;5.82;;;2.65;;
60432;SDS011;46286;48.098;11.590;2023-02-26T03:33:20;7.75;;;2.30;;
60432;SDS011;46286;48.098;11.590;2023-02-26T03:38:41;6.28;;;2.55;;
60432;SDS011;46286;48.098;11.590;2023-02-26T03:41:23;5.57;;;2.50;;
60432;SDS011;46286;48.098;11.590;2023-02-26T03:43:59;7.03;;;2.75;;
60432;SDS011;46286;48.098;11.590;2023-02-26T03:46:34;7.70;;;2.72;;
60432;SDS011;46286;48.098;11.590;2023-02-26T03:49:06;4.85;;;2.28;;
60432;SDS011;46286;48.098;11.590;2023-02-26T03:51:36;6.00;;;2.30;;
60432;SDS011;46286;48.098;11.590;2023-02-26T03:54:08;7.82;;;2.33;;
60432;SDS011;46286;48.098;11.590;2023-02-26T03:56:41;4.93;;;2.42;;
60432;SDS011;46286;48.098;11.590;2023-02-26T03:59:09;7.60;;;2.30;;
60432;SDS011;46286;48.098;11.590;2023-02-26T04:01:40;8.63;;;2.08;;
60432;SDS011;46286;48.098;11.590;2023-02-26T04:04:12;8.40;;;2.42;;
60432;SDS011;46286;48.098;11.590;2023-02-26T04:06:45;5.25;;;2.50;;
60432;SDS011;46286;48.098;11.590;2023-02-26T04:09:12;4.20;;;2.40;;
60432;SDS011;46286;48.098;11.590;2023-02-26T04:11:37;4.47;;;2.38;;
60432;SDS011;46286;48.098;11.590;2023-02-26T04:14:04;4.70;;;1.90;;
60432;SDS011;46286;48.098;11.590;2023-02-26T04:16:29;8.43;;;2.65;;
60432;SDS011;46286;48.098;11.590;2023-02-26T04:18:55;7.45;;;2.38;;
60432;SDS011;46286;48.098;11.590;2023-02-26T04:21:21;8.48;;;2.75;;
60432;SDS011;46286;48.098;11.590;2023-02-26T04:23:47;4.60;;;2.80;;
60432;SDS011;46286;48.098;11.590;2023-02-26T04:26:13;5.10;;;2.58;;
60432;SDS011;46286;48.098;11.590;2023-02-26T04:28:39;5.70;;;2.75;;
60432;SDS011;46286;48.098;11.590;2023-02-26T04:31:05;8.50;;;3.00;;
60432;SDS011;46286;48.098;11.590;2023-02-26T04:33:31;5.78;;;2.42;;
60432;SDS011;46286;48.098;11.590;2023-02-26T04:35:58;7.35;;;2.53;;
60432;SDS011;46286;48.098;11.590;2023-02-26T04:38:24;7.65;;;2.53;;
60432;SDS011;46286;48.098;11.590;2023-02-26T04:40:50;5.60;;;2.50;;
60432;SDS011;46286;48.098;11.590;2023-02-26T04:43:16;5.13;;;2.35;;
60432;SDS011;46286;48.098;11.590;2023-02-26T04:45:43;5.55;;;2.45;;
60432;SDS011;46286;48.098;11.590;2023-02-26T04:48:13;4.88;;;2.45;;
60432;SDS011;46286;48.098;11.590;2023-02-26T04:50:39;5.20;;;2.28;;
60432;SDS011;46286;48.098;11.590;2023-02-26T04:53:05;22.60;;;3.00;;
60432;SDS011;46286;48.098;11.590;2023-02-26T04:55:30;8.73;;;3.40;;
60432;SDS011;46286;48.098;11.590;2023-02-26T04:57:56;5.22;;;2.58;;
60432;SDS011;46286;48.098;11.590;2023-02-26T05:00:22;9.15;;;2.80;;
60432;SDS011;46286;48.098;11.590;2023-02-26T05:02:47;5.47;;;2.65;;
60432;SDS011;46286;48.098;11.590;2023-02-26T05:05:13;9.88;;;3.10;;
60432;SDS011;46286;48.098;11.590;2023-02-26T05:07:38;9.73;;;2.80;;
60432;SDS011;46286;48.098;11.590;2023-02-26T05:10:04;9.65;;;2.75;;
60432;SDS011;46286;48.098;11.590;2023-02-26T05:12:31;7.40;;;2.90;;
60432;SDS011;46286;48.098;11.590;2023-02-26T05:14:57;11.65;;;2.88;;
60432;SDS011;46286;48.098;11.590;2023-02-26T05:17:23;8.00;;;2.83;;
60432;SDS011;46286;48.098;11.590;2023-02-26T05:19:48;5.45;;;2.90;;
60432;SDS011;46286;48.098;11.590;2023-02-26T05:22:14;11.40;;;3.60;;
60432;SDS011;46286;48.098;11.590;2023-02-26T05:24:40;8.32;;;3.00;;
60432;SDS011;46286;48.098;11.590;2023-02-26T05:27:06;8.98;;;3.50;;
60432;SDS011;46286;48.098;11.590;2023-02-26T05:29:31;9.07;;;3.03;;
60432;SDS011;46286;48.098;11.590;2023-02-26T05:31:57;7.78;;;3.13;;
60432;SDS011;46286;48.098;11.590;2023-02-26T05:34:22;8.98;;;4.00;;
60432;SDS011;46286;48.098;11.590;2023-02-26T05:36:48;7.00;;;2.80;;
60432;SDS011;46286;48.098;11.590;2023-02-26T05:39:13;16.75;;;3.63;;
60432;SDS011;46286;48.098;11.590;2023-02-26T05:41:39;13.05;;;3.25;;
60432;SDS011;46286;48.098;11.590;2023-02-26T05:44:04;16.63;;;3.50;;
60432;SDS011;46286;48.098;11.590;2023-02-26T05:46:32;8.55;;;3.28;;
60432;SDS011;46286;48.098;11.590;2023-02-26T05:48:58;8.07;;;2.83;;
60432;SDS011;46286;48.098;11.590;2023-02-26T05:51:23;6.80;;;2.70;;
60432;SDS011;46286;48.098;11.590;2023-02-26T05:53:49;7.03;;;2.80;;
60432;SDS011;46286;48.098;11.590;2023-02-26T05:56:15;10.63;;;3.33;;
60432;SDS011;46286;48.098;11.590;2023-02-26T05:58:40;11.45;;;2.75;;
60432;SDS011;46286;48.098;11.590;2023-02-26T06:01:06;7.05;;;2.63;;
60432;SDS011;46286;48.098;11.590;2023-02-26T06:03:31;13.05;;;3.47;;
60432;SDS011;46286;48.098;11.590;2023-02-26T06:05:57;18.98;;;3.17;;
60432;SDS011;46286;48.098;11.590;2023-02-26T06:08:23;6.45;;;2.78;;
60432;SDS011;46286;48.098;11.590;2023-02-26T06:10:49;8.95;;;2.75;;
60432;SDS011;46286;48.098;11.590;2023-02-26T06:13:16;10.10;;;3.22;;
60432;SDS011;46286;48.098;11.590;2023-02-26T06:15:42;11.10;;;3.13;;
60432;SDS011;46286;48.098;11.590;2023-02-26T06:18:07;12.48;;;2.80;;
60432;SDS011;46286;48.098;11.590;2023-02-26T06:20:33;8.05;;;3.10;;
60432;SDS011;46286;48.098;11.590;2023-02-26T06:22:59;8.98;;;2.97;;
60432;SDS011;46286;48.098;11.590;2023-02-26T06:25:25;10.43;;;3.05;;
60432;SDS011;46286;48.098;11.590;2023-02-26T06:27:50;8.93;;;3.67;;
60432;SDS011;46286;48.098;11.590;2023-02-26T06:30:16;22.60;;;4.03;;
60432;SDS011;46286;48.098;11.590;2023-02-26T06:32:42;5.82;;;2.92;;
60432;SDS011;46286;48.098;11.590;2023-02-26T06:35:09;7.18;;;3.10;;
60432;SDS011;46286;48.098;11.590;2023-02-26T06:37:34;6.47;;;3.30;;
60432;SDS011;46286;48.098;11.590;2023-02-26T06:40:01;8.00;;;2.95;;
60432;SDS011;46286;48.098;11.590;2023-02-26T06:42:26;7.38;;;3.10;;
60432;SDS011;46286;48.098;11.590;2023-02-26T06:44:52;13.15;;;3.47;;
60432;SDS011;46286;48.098;11.590;2023-02-26T06:47:17;7.57;;;3.65;;
60432;SDS011;46286;48.098;11.590;2023-02-26T06:49:43;12.48;;;3.47;;
60432;SDS011;46286;48.098;11.590;2023-02-26T06:52:08;14.23;;;3.20;;
60432;SDS011;46286;48.098;11.590;2023-02-26T06:54:34;6.78;;;2.90;;
60432;SDS011;46286;48.098;11.590;2023-02-26T06:56:59;10.52;;;3.53;;
60432;SDS011;46286;48.098;11.590;2023-02-26T06:59:26;7.53;;;3.30;;
60432;SDS011;46286;48.098;11.590;2023-02-26T07:01:53;10.10;;;3.50;;
60432;SDS011;46286;48.098;11.590;2023-02-26T07:04:18;7.53;;;3.55;;
60432;SDS011;46286;48.098;11.590;2023-02-26T07:06:44;7.45;;;3.20;;
60432;SDS011;46286;48.098;11.590;2023-02-26T07:09:09;8.40;;;3.40;;
60432;SDS011;46286;48.098;11.590;2023-02-26T07:11:35;8.93;;;2.97;;
60432;SDS011;46286;48.098;11.590;2023-02-26T07:14:01;11.07;;;4.10;;
60432;SDS011;46286;48.098;11.590;2023-02-26T07:16:26;7.05;;;3.53;;
60432;SDS011;46286;48.098;11.590;2023-02-26T07:18:52;16.95;;;3.90;;
60432;SDS011;46286;48.098;11.590;2023-02-26T07:21:17;17.05;;;3.70;;
60432;SDS011;46286;48.098;11.590;2023-02-26T07:23:43;14.95;;;3.55;;
60432;SDS011;46286;48.098;11.590;2023-02-26T07:26:08;8.70;;;3.00;;
60432;SDS011;46286;48.098;11.590;2023-02-26T07:28:34;8.35;;;3.65;;
60432;SDS011;46286;48.098;11.590;2023-02-26T07:31:00;8.27;;;3.17;;
60432;SDS011;46286;48.098;11.590;2023-02-26T07:33:25;5.88;;;3.05;;
60432;SDS011;46286;48.098;11.590;2023-02-26T07:35:52;9.48;;;3.50;;
60432;SDS011;46286;48.098;11.590;2023-02-26T07:38:18;5.85;;;2.97;;
60432;SDS011;46286;48.098;11.590;2023-02-26T07:40:44;11.95;;;3.65;;
60432;SDS011;46286;48.098;11.590;2023-02-26T07:43:10;7.03;;;3.13;;
60432;SDS011;46286;48.098;11.590;2023-02-26T07:45:35;7.78;;;3.40;;
60432;SDS011;46286;48.098;11.590;2023-02-26T07:48:01;12.02;;;3.67;;
60432;SDS011;46286;48.098;11.590;2023-02-26T07:50:26;7.03;;;3.38;;
60432;SDS011;46286;48.098;11.590;2023-02-26T07:52:52;10.20;;;4.03;;
60432;SDS011;46286;48.098;11.590;2023-02-26T07:55:18;10.63;;;3.95;;
60432;SDS011;46286;48.098;11.590;2023-02-26T07:57:44;11.20;;;3.85;;
60432;SDS011;46286;48.098;11.590;2023-02-26T08:00:10;10.48;;;3.80;;
60432;SDS011;46286;48.098;11.590;2023-02-26T08:02:36;8.98;;;3.72;;
60432;SDS011;46286;48.098;11.590;2023-02-26T08:05:01;11.45;;;4.22;;
60432;SDS011;46286;48.098;11.590;2023-02-26T08:07:27;18.67;;;2.92;;
60432;SDS011;46286;48.098;11.590;2023-02-26T08:09:53;18.65;;;4.03;;
60432;SDS011;46286;48.098;11.590;2023-02-26T08:12:18;14.93;;;4.40;;
60432;SDS011;46286;48.098;11.590;2023-02-26T08:14:44;7.47;;;3.50;;
60432;SDS011;46286;48.098;11.590;2023-02-26T08:17:10;12.15;;;3.80;;
60432;SDS011;46286;48.098;11.590;2023-02-26T08:19:35;9.27;;;3.25;;
60432;SDS011;46286;48.098;11.590;2023-02-26T08:22:01;10.30;;;3.97;;
60432;SDS011;46286;48.098;11.590;2023-02-26T08:24:27;10.23;;;4.00;;
60432;SDS011;46286;48.098;11.590;2023-02-26T08:26:53;15.90;;;4.07;;
60432;SDS011;46286;48.098;11.590;2023-02-26T08:29:18;7.53;;;3.33;;
60432;SDS011;46286;48.098;11.590;2023-02-26T08:31:45;7.30;;;3.40;;
60432;SDS011;46286;48.098;11.590;2023-02-26T08:34:10;10.00;;;2.83;;
60432;SDS011;46286;48.098;11.590;2023-02-26T08:36:36;6.25;;;3.20;;
60432;SDS011;46286;48.098;11.590;2023-02-26T08:39:02;8.13;;;3.88;;
60432;SDS011;46286;48.098;11.590;2023-02-26T08:41:28;7.47;;;3.63;;
60432;SDS011;46286;48.098;11.590;2023-02-26T08:43:56;12.57;;;4.88;;
60432;SDS011;46286;48.098;11.590;2023-02-26T08:46:22;12.55;;;3.95;;
60432;SDS011;46286;48.098;11.590;2023-02-26T08:48:47;7.60;;;3.60;;
60432;SDS011;46286;48.098;11.590;2023-02-26T08:51:13;10.27;;;4.07;;
60432;SDS011;46286;48.098;11.590;2023-02-26T08:53:38;8.13;;;3.47;;
60432;SDS011;46286;48.098;11.590;2023-02-26T08:56:04;6.97;;;3.88;;
60432;SDS011;46286;48.098;11.590;2023-02-26T08:58:30;8.43;;;3.67;;
60432;SDS011;46286;48.098;11.590;2023-02-26T09:00:56;10.15;;;3.92;;
60432;SDS011;46286;48.098;11.590;2023-02-26T09:03:21;7.20;;;3.80;;
60432;SDS011;46286;48.098;11.590;2023-02-26T09:05:47;13.65;;;4.43;;
60432;SDS011;46286;48.098;11.590;2023-02-26T09:08:12;9.27;;;4.05;;
60432;SDS011;46286;48.098;11.590;2023-02-26T09:10:40;10.95;;;4.20;;
60432;SDS011;46286;48.098;11.590;2023-02-26T09:13:06;10.80;;;3.80;;
60432;SDS011;46286;48.098;11.590;2023-02-26T09:15:32;10.07;;;4.05;;
60432;SDS011;46286;48.098;11.590;2023-02-26T09:17:59;7.90;;;4.03;;
60432;SDS011;46286;48.098;11.590;2023-02-26T09:20:25;8.98;;;3.90;;
60432;SDS011;46286;48.098;11.590;2023-02-26T09:22:51;9.43;;;3.55;;
60432;SDS011;46286;48.098;11.590;2023-02-26T09:25:17;8.95;;;4.20;;
60432;SDS011;46286;48.098;11.590;2023-02-26T09:27:42;8.38;;;3.97;;
60432;SDS011;46286;48.098;11.590;2023-02-26T09:30:08;8.93;;;3.95;;
60432;SDS011;46286;48.098;11.590;2023-02-26T09:32:34;8.15;;;3.90;;
60432;SDS011;46286;48.098;11.590;2023-02-26T09:35:00;8.23;;;4.07;;
60432;SDS011;46286;48.098;11.590;2023-02-26T09:37:26;9.77;;;3.60;;
60432;SDS011;46286;48.098;11.590;2023-02-26T09:39:52;8.45;;;4.55;;
60432;SDS011;46286;48.098;11.590;2023-02-26T09:44:53;11.75;;;3.90;;
60432;SDS011;46286;48.098;11.590;2023-02-26T09:49:58;8.98;;;4.53;;
60432;SDS011;46286;48.098;11.590;2023-02-26T09:55:13;8.57;;;3.60;;
60432;SDS011;46286;48.098;11.590;2023-02-26T09:57:45;10.40;;;4.03;;
60432;SDS011;46286;48.098;11.590;2023-02-26T10:00:17;8.85;;;4.22;;
60432;SDS011;46286;48.098;11.590;2023-02-26T10:08:15;7.32;;;4.07;;
60432;SDS011;46286;48.098;11.590;2023-02-26T10:13:47;7.50;;;3.95;;
60432;SDS011;46286;48.098;11.590;2023-02-26T10:16:21;10.98;;;4.43;;
60432;SDS011;46286;48.098;11.590;2023-02-26T10:19:09;9.10;;;4.05;;
60432;SDS011;46286;48.098;11.590;2023-02-26T10:21:39;8.23;;;4.07;;
60432;SDS011;46286;48.098;11.590;2023-02-26T10:24:12;8.85;;;4.53;;
60432;SDS011;46286;48.098;11.590;2023-02-26T10:26:44;6.65;;;3.95;;
60432;SDS011;46286;48.098;11.590;2023-02-26T10:29:29;13.35;;;4.47;;
60432;SDS011;46286;48.098;11.590;2023-02-26T10:32:14;8.10;;;4.45;;
60432;SDS011;46286;48.098;11.590;2023-02-26T10:34:52;8.25;;;4.53;;
60432;SDS011;46286;48.098;11.590;2023-02-26T10:40:22;8.60;;;4.40;;
60432;SDS011;46286;48.098;11.590;2023-02-26T10:45:31;8.70;;;4.80;;
60432;SDS011;46286;48.098;11.590;2023-02-26T10:52:59;9.13;;;3.70;;
60432;SDS011;46286;48.098;11.590;2023-02-26T10:55:33;8.68;;;5.20;;
60432;SDS011;46286;48.098;11.590;2023-02-26T10:58:13;9.48;;;4.07;;
60432;SDS011;46286;48.098;11.590;2023-02-26T11:00:41;10.77;;;4.47;;
60432;SDS011;46286;48.098;11.590;2023-02-26T11:03:14;12.80;;;4.65;;
60432;SDS011;46286;48.098;11.590;2023-02-26T11:05:42;11.30;;;4.65;;
60432;SDS011;46286;48.098;11.590;2023-02-26T11:08:10;9.13;;;4.70;;
60432;SDS011;46286;48.098;11.590;2023-02-26T11:10:53;9.45;;;4.82;;
60432;SDS011;46286;48.098;11.590;2023-02-26T11:13:22;8.32;;;3.88;;
60432;SDS011;46286;48.098;11.590;2023-02-26T11:15:53;7.93;;;4.60;;
60432;SDS011;46286;48.098;11.590;2023-02-26T11:18:22;10.88;;;4.60;;
60432;SDS011;46286;48.098;11.590;2023-02-26T11:20:52;8.80;;;4.40;;
60432;SDS011;46286;48.098;11.590;2023-02-26T11:23:20;7.20;;;4.10;;
60432;SDS011;46286;48.098;11.590;2023-02-26T11:28:48;7.53;;;3.85;;
60432;SDS011;46286;48.098;11.590;2023-02-26T11:31:18;10.60;;;3.97;;
60432;SDS011;46286;48.098;11.590;2023-02-26T11:33:48;8.45;;;4.30;;
60432;SDS011;46286;48.098;11.590;2023-02-26T11:36:19;8.48;;;4.45;;
60432;SDS011;46286;48.098;11.590;2023-02-26T11:38:51;9.38;;;4.50;;
60432;SDS011;46286;48.098;11.590;2023-02-26T11:41:19;8.65;;;4.28;;
60432;SDS011;46286;48.098;11.590;2023-02-26T11:44:06;8.30;;;3.83;;
60432;SDS011;46286;48.098;11.590;2023-02-26T11:46:50;10.68;;;4.22;;
60432;SDS011;46286;48.098;11.590;2023-02-26T11:49:20;11.45;;;5.18;;
60432;SDS011;46286;48.098;11.590;2023-02-26T11:51:48;11.48;;;5.72;;
60432;SDS011;46286;48.098;11.590;2023-02-26T11:54:28;12.27;;;5.53;;
60432;SDS011;46286;48.098;11.590;2023-02-26T11:57:01;10.77;;;5.22;;
60432;SDS011;46286;48.098;11.590;2023-02-26T11:59:31;11.10;;;5.32;;
60432;SDS011;46286;48.098;11.590;2023-02-26T12:02:00;8.20;;;4.70;;
60432;SDS011;46286;48.098;11.590;2023-02-26T12:04:44;7.72;;;4.32;;
60432;SDS011;46286;48.098;11.590;2023-02-26T12:07:13;8.98;;;4.85;;
60432;SDS011;46286;48.098;11.590;2023-02-26T12:09:40;9.38;;;4.78;;
60432;SDS011;46286;48.098;11.590;2023-02-26T12:12:29;8.48;;;4.53;;
60432;SDS011;46286;48.098;11.590;2023-02-26T12:15:20;9.57;;;4.43;;
60432;SDS011;46286;48.098;11.590;2023-02-26T12:23:52;5.57;;;3.28;;
60432;SDS011;46286;48.098;11.590;2023-02-26T12:29:24;5.28;;;3.08;;
60432;SDS011;46286;48.098;11.590;2023-02-26T12:34:43;10.48;;;3.42;;
60432;SDS011;46286;48.098;11.590;2023-02-26T12:40:18;6.88;;;3.20;;
60432;SDS011;46286;48.098;11.590;2023-02-26T13:12:47;5.53;;;2.78;;
60432;SDS011;46286;48.098;11.590;2023-02-26T13:20:53;5.10;;;3.00;;
60432;SDS011;46286;48.098;11.590;2023-02-26T13:23:25;5.65;;;2.50;;
60432;SDS011;46286;48.098;11.590;2023-02-26T13:26:10;5.97;;;2.92;;
60432;SDS011;46286;48.098;11.590;2023-02-26T13:28:43;7.43;;;2.92;;
60432;SDS011;46286;48.098;11.590;2023-02-26T13:31:22;4.93;;;2.70;;
60432;SDS011;46286;48.098;11.590;2023-02-26T13:33:52;5.40;;;2.80;;
60432;SDS011;46286;48.098;11.590;2023-02-26T13:36:21;6.85;;;2.85;;
60432;SDS011;46286;48.098;11.590;2023-02-26T13:38:56;6.15;;;3.05;;
60432;SDS011;46286;48.098;11.590;2023-02-26T13:42:14;6.07;;;2.65;;
60432;SDS011;46286;48.098;11.590;2023-02-26T13:52:51;6.22;;;2.38;;
60432;SDS011;46286;48.098;11.590;2023-02-26T13:55:40;4.45;;;2.50;;
60432;SDS011;46286;48.098;11.590;2023-02-26T14:01:05;5.40;;;2.92;;
60432;SDS011;46286;48.098;11.590;2023-02-26T14:07:03;8.52;;;3.10;;
60432;SDS011;46286;48.098;11.590;2023-02-26T14:09:45;8.00;;;3.60;;
60432;SDS011;46286;48.098;11.590;2023-02-26T14:12:36;7.82;;;3.50;;
60432;SDS011;46286;48.098;11.590;2023-02-26T14:20:17;5.35;;;2.42;;
60432;SDS011;46286;48.098;11.590;2023-02-26T14:22:52;5.40;;;2.60;;
60432;SDS011;46286;48.098;11.590;2023-02-26T14:25:48;4.75;;;2.50;;
60432;SDS011;46286;48.098;11.590;2023-02-26T14:33:30;4.90;;;2.38;;
60432;SDS011;46286;48.098;11.590;2023-02-26T14:36:01;5.90;;;2.60;;
60432;SDS011;46286;48.098;11.590;2023-02-26T14:38:30;4.18;;;2.25;;
60432;SDS011;46286;48.098;11.590;2023-02-26T14:41:04;6.00;;;2.72;;
60432;SDS011;46286;48.098;11.590;2023-02-26T14:43:38;6.25;;;2.65;;
60432;SDS011;46286;48.098;11.590;2023-02-26T14:46:07;8.93;;;3.30;;
60432;SDS011;46286;48.098;11.590;2023-02-26T14:48:34;5.40;;;2.95;;
60432;SDS011;46286;48.098;11.590;2023-02-26T14:56:26;7.38;;;3.15;;
60432;SDS011;46286;48.098;11.590;2023-02-26T15:15:38;6.38;;;2.78;;
60432;SDS011;46286;48.098;11.590;2023-02-26T15:21:59;3.85;;;2.22;;
60432;SDS011;46286;48.098;11.590;2023-02-26T15:24:13;4.97;;;2.65;;
60432;SDS011;46286;48.098;11.590;2023-02-26T15:26:50;6.25;;;2.38;;
60432;SDS011;46286;48.098;11.590;2023-02-26T15:29:20;6.15;;;2.30;;
60432;SDS011;46286;48.098;11.590;2023-02-26T15:31:51;6.18;;;2.55;;
60432;SDS011;46286;48.098;11.590;2023-02-26T15:34:19;5.60;;;2.67;;
60432;SDS011;46286;48.098;11.590;2023-02-26T15:36:48;6.35;;;2.75;;
60432;SDS011;46286;48.098;11.590;2023-02-26T15:39:15;5.32;;;2.50;;
60432;SDS011;46286;48.098;11.590;2023-02-26T15:41:43;5.60;;;2.80;;
60432;SDS011;46286;48.098;11.590;2023-02-26T15:44:16;7.28;;;3.30;;
60432;SDS011;46286;48.098;11.590;2023-02-26T15:46:55;7.40;;;2.80;;
60432;SDS011;46286;48.098;11.590;2023-02-26T15:49:35;4.72;;;2.58;;
60432;SDS011;46286;48.098;11.590;2023-02-26T15:52:03;6.18;;;3.20;;
60432;SDS011;46286;48.098;11.590;2023-02-26T15:54:36;6.65;;;3.17;;
60432;SDS011;46286;48.098;11.590;2023-02-26T15:57:06;8.65;;;3.22;;
60432;SDS011;46286;48.098;11.590;2023-02-26T15:59:34;8.13;;;3.33;;
60432;SDS011;46286;48.098;11.590;2023-02-26T16:02:10;7.80;;;3.13;;
60432;SDS011;46286;48.098;11.590;2023-02-26T16:04:38;7.47;;;3.60;;
60432;SDS011;46286;48.098;11.590;2023-02-26T16:07:04;6.60;;;3.03;;
60432;SDS011;46286;48.098;11.590;2023-02-26T16:09:34;6.82;;;3.20;;
60432;SDS011;46286;48.098;11.590;2023-02-26T16:12:03;7.25;;;3.60;;
60432;SDS011;46286;48.098;11.590;2023-02-26T16:14:37;8.35;;;3.40;;
60432;SDS011;46286;48.098;11.590;2023-02-26T16:17:05;9.13;;;3.67;;
60432;SDS011;46286;48.098;11.590;2023-02-26T16:19:40;7.85;;;3.30;;
60432;SDS011;46286;48.098;11.590;2023-02-26T16:22:23;7.15;;;3.63;;
60432;SDS011;46286;48.098;11.590;2023-02-26T16:24:56;8.25;;;3.88;;
60432;SDS011;46286;48.098;11.590;2023-02-26T16:27:28;7.55;;;3.40;;
60432;SDS011;46286;48.098;11.590;2023-02-26T16:29:56;9.15;;;3.50;;
60432;SDS011;46286;48.098;11.590;2023-02-26T16:32:24;6.70;;;3.40;;
60432;SDS011;46286;48.098;11.590;2023-02-26T16:34:54;6.72;;;3.47;;
60432;SDS011;46286;48.098;11.590;2023-02-26T16:42:44;5.93;;;2.83;;
60432;SDS011;46286;48.098;11.590;2023-02-26T16:48:12;6.13;;;2.55;;
60432;SDS011;46286;48.098;11.590;2023-02-26T16:50:38;7.38;;;2.70;;
60432;SDS011;46286;48.098;11.590;2023-02-26T16:53:18;5.35;;;2.67;;
60432;SDS011;46286;48.098;11.590;2023-02-26T16:55:48;6.88;;;2.45;;
60432;SDS011;46286;48.098;11.590;2023-02-26T16:58:16;6.40;;;3.15;;
60432;SDS011;46286;48.098;11.590;2023-02-26T17:00:44;8.38;;;2.97;;
60432;SDS011;46286;48.098;11.590;2023-02-26T17:03:12;4.88;;;2.67;;
60432;SDS011;46286;48.098;11.590;2023-02-26T17:05:55;6.30;;;2.80;;
60432;SDS011;46286;48.098;11.590;2023-02-26T17:08:31;7.13;;;2.80;;
60432;SDS011;46286;48.098;11.590;2023-02-26T17:11:05;4.38;;;2.50;;
60432;SDS011;46286;48.098;11.590;2023-02-26T17:13:34;4.88;;;2.50;;
60432;SDS011;46286;48.098;11.590;2023-02-26T17:16:04;4.82;;;2.67;;
60432;SDS011;46286;48.098;11.590;2023-02-26T17:18:32;5.68;;;2.65;;
60432;SDS011;46286;48.098;11.590;2023-02-26T17:20:58;6.20;;;2.70;;
60432;SDS011;46286;48.098;11.590;2023-02-26T17:23:29;5.35;;;2.42;;
60432;SDS011;46286;48.098;11.590;2023-02-26T17:25:56;6.07;;;2.95;;
60432;SDS011;46286;48.098;11.590;2023-02-26T17:28:26;4.50;;;2.70;;
60432;SDS011;46286;48.098;11.590;2023-02-26T17:30:55;5.78;;;2.78;;
60432;SDS011;46286;48.098;11.590;2023-02-26T17:33:21;4.85;;;2.80;;
60432;SDS011;46286;48.098;11.590;2023-02-26T17:35:47;7.45;;;3.00;;
60432;SDS011;46286;48.098;11.590;2023-02-26T17:38:14;6.10;;;3.08;;
60432;SDS011;46286;48.098;11.590;2023-02-26T17:40:44;5.18;;;3.00;;
60432;SDS011;46286;48.098;11.590;2023-02-26T17:43:11;6.28;;;2.72;;
60432;SDS011;46286;48.098;11.590;2023-02-26T17:45:38;6.75;;;3.17;;